Time;durP1;ratioP1;P1;durP2;ratioP2;P2;SDS_P1;SDS_P2;PMS_P1;PMS_P2;Temp;Humidity;BMP_temperature;BMP_pressure;BME280_temperature;BME280_humidity;BME280_pressure;Samples;Min_cycle;Max_cycle;Signal;HPM_P1;HPM_P2
2023/04/26 00:00:28;;;;;;;6.63;3.97;;;12.80;99.90;;;;;;5066508;28;20328;-72
2023/04/26 00:02:54;;;;;;;5.00;4.10;;;12.80;99.90;;;;;;5076787;28;20062;-72
2023/04/26 00:05:20;;;;;;;4.65;4.15;;;12.90;99.90;;;;;;5056583;28;20041;-72
2023/04/26 00:07:49;;;;;;;4.65;3.92;;;12.90;99.90;;;;;;5069221;28;20059;-72
2023/04/26 00:10:15;;;;;;;5.70;3.95;;;12.90;99.90;;;;;;5072854;28;20063;-72
2023/04/26 00:12:41;;;;;;;4.43;3.85;;;12.80;99.90;;;;;;5069037;28;20032;-72
2023/04/26 00:15:08;;;;;;;6.40;4.22;;;12.90;99.90;;;;;;5069792;28;20032;-71
2023/04/26 00:17:34;;;;;;;7.95;4.50;;;13.00;99.90;;;;;;5073210;28;20501;-72
2023/04/26 00:20:01;;;;;;;5.78;4.43;;;13.00;99.90;;;;;;5062167;28;20057;-73
2023/04/26 00:22:27;;;;;;;5.65;4.07;;;12.90;99.90;;;;;;5065909;28;20047;-72
2023/04/26 00:24:53;;;;;;;8.48;4.05;;;12.80;99.90;;;;;;5072095;28;20033;-72
2023/04/26 00:27:20;;;;;;;3.58;3.28;;;12.80;99.90;;;;;;5073025;28;20024;-72
2023/04/26 00:29:46;;;;;;;6.63;4.18;;;12.60;99.90;;;;;;5072848;28;20024;-72
2023/04/26 00:32:12;;;;;;;5.57;4.00;;;12.70;99.90;;;;;;5070972;28;20395;-72
2023/04/26 00:34:38;;;;;;;5.18;4.60;;;12.70;99.90;;;;;;5065390;28;20051;-72
2023/04/26 00:37:04;;;;;;;5.63;4.07;;;12.70;99.90;;;;;;5072177;28;20376;-72
2023/04/26 00:39:30;;;;;;;4.72;4.22;;;12.80;99.90;;;;;;5071945;28;20036;-72
2023/04/26 00:41:56;;;;;;;5.90;4.55;;;12.90;99.90;;;;;;5070302;28;20033;-72
2023/04/26 00:44:23;;;;;;;4.47;4.07;;;13.00;99.90;;;;;;5071731;28;20383;-72
2023/04/26 00:46:49;;;;;;;5.45;4.20;;;12.90;99.90;;;;;;5071138;28;20605;-72
2023/04/26 00:49:16;;;;;;;4.80;4.30;;;12.90;99.90;;;;;;5053953;28;20364;-72
2023/04/26 00:51:43;;;;;;;6.32;4.60;;;12.90;99.90;;;;;;5072062;28;20048;-72
2023/04/26 00:54:09;;;;;;;6.78;4.93;;;12.90;99.90;;;;;;5071101;28;20045;-72
2023/04/26 00:56:36;;;;;;;6.32;4.35;;;12.80;99.90;;;;;;5069812;28;20030;-72
2023/04/26 00:59:02;;;;;;;4.70;3.90;;;12.80;99.90;;;;;;5069530;28;20039;-71
2023/04/26 01:01:28;;;;;;;5.00;4.38;;;12.70;99.90;;;;;;5070655;28;20036;-72
2023/04/26 01:03:54;;;;;;;5.13;4.63;;;12.70;99.90;;;;;;5065586;28;20036;-72
2023/04/26 01:06:21;;;;;;;5.10;4.50;;;12.60;99.90;;;;;;5070080;28;20055;-72
2023/04/26 01:08:47;;;;;;;5.10;4.45;;;12.70;99.90;;;;;;5067483;28;20028;-72
2023/04/26 01:11:13;;;;;;;5.38;4.88;;;12.70;99.90;;;;;;5069733;28;20055;-72
2023/04/26 01:13:40;;;;;;;6.95;5.00;;;12.80;99.90;;;;;;5059369;28;20047;-72
2023/04/26 01:16:06;;;;;;;6.20;5.35;;;12.80;99.90;;;;;;5065750;28;20403;-72
2023/04/26 01:18:33;;;;;;;7.32;5.30;;;12.70;99.90;;;;;;5067889;28;20040;-72
2023/04/26 01:20:59;;;;;;;11.55;5.55;;;12.70;99.90;;;;;;5053410;28;20020;-71
2023/04/26 01:23:25;;;;;;;5.88;5.28;;;12.70;99.90;;;;;;5069532;28;20027;-71
2023/04/26 01:25:52;;;;;;;5.95;5.05;;;12.70;99.90;;;;;;5064055;28;20032;-71
2023/04/26 01:28:18;;;;;;;6.80;5.13;;;12.70;99.90;;;;;;5068796;28;20107;-71
2023/04/26 01:30:44;;;;;;;7.07;5.10;;;12.70;99.90;;;;;;5064006;28;20037;-71
2023/04/26 01:33:10;;;;;;;7.00;5.50;;;12.70;99.90;;;;;;5071063;28;20474;-71
2023/04/26 01:35:36;;;;;;;8.88;5.70;;;12.70;99.90;;;;;;5069947;28;20040;-71
2023/04/26 01:38:03;;;;;;;9.00;5.45;;;12.70;99.90;;;;;;5060566;28;20491;-71
2023/04/26 01:40:29;;;;;;;6.47;5.85;;;12.70;99.90;;;;;;5069636;28;20467;-71
2023/04/26 01:42:55;;;;;;;8.35;5.60;;;12.70;99.90;;;;;;5070122;28;20069;-71
2023/04/26 01:45:21;;;;;;;8.43;5.88;;;12.80;99.90;;;;;;5066828;28;20399;-71
2023/04/26 01:47:47;;;;;;;7.25;5.60;;;12.80;99.90;;;;;;5071156;28;20035;-72
2023/04/26 01:50:13;;;;;;;5.18;4.65;;;12.80;99.90;;;;;;5069035;28;20597;-71
2023/04/26 01:52:39;;;;;;;7.13;5.55;;;12.70;99.90;;;;;;5071455;28;20056;-71
2023/04/26 01:55:06;;;;;;;6.32;5.20;;;12.70;99.90;;;;;;5068730;28;20056;-71
2023/04/26 01:57:32;;;;;;;8.73;5.22;;;12.70;99.90;;;;;;5071214;28;20033;-71
2023/04/26 01:59:58;;;;;;;6.55;5.00;;;12.70;99.90;;;;;;5068689;28;20521;-71
2023/04/26 02:02:25;;;;;;;7.25;4.82;;;12.70;99.90;;;;;;5066329;28;20032;-71
2023/04/26 02:04:51;;;;;;;8.75;5.20;;;12.70;99.90;;;;;;5066339;28;20040;-71
2023/04/26 02:07:17;;;;;;;7.70;5.00;;;12.70;99.90;;;;;;5064444;28;20486;-71
2023/04/26 02:09:45;;;;;;;6.20;4.55;;;12.90;99.90;;;;;;5066748;28;20044;-71
2023/04/26 02:12:11;;;;;;;6.13;4.72;;;12.80;99.90;;;;;;5068736;28;20044;-71
2023/04/26 02:14:37;;;;;;;6.40;4.57;;;12.80;99.90;;;;;;5065293;28;20044;-71
2023/04/26 02:17:05;;;;;;;6.47;4.82;;;12.90;99.90;;;;;;5066243;28;20038;-71
2023/04/26 02:19:31;;;;;;;6.45;4.90;;;13.00;99.90;;;;;;5070552;28;20510;-71
2023/04/26 02:21:57;;;;;;;7.93;4.70;;;13.10;99.90;;;;;;5068317;28;20020;-71
2023/04/26 02:24:24;;;;;;;5.30;4.80;;;12.90;99.90;;;;;;5069610;28;20027;-71
2023/04/26 02:26:51;;;;;;;5.55;4.80;;;12.70;99.90;;;;;;5069265;28;20036;-71
2023/04/26 02:29:17;;;;;;;5.82;4.63;;;12.70;99.90;;;;;;5070149;28;20021;-71
2023/04/26 02:31:43;;;;;;;7.70;5.10;;;12.60;99.90;;;;;;5067418;28;20040;-71
2023/04/26 02:34:09;;;;;;;7.07;5.15;;;12.70;99.90;;;;;;5068246;28;20052;-71
2023/04/26 02:36:35;;;;;;;5.55;4.95;;;12.60;99.90;;;;;;5070136;28;20028;-71
2023/04/26 02:39:01;;;;;;;5.28;4.63;;;12.70;99.90;;;;;;5070299;28;20032;-71
2023/04/26 02:41:30;;;;;;;5.75;5.00;;;12.70;99.90;;;;;;5071153;28;20036;-71
2023/04/26 02:43:56;;;;;;;5.72;5.22;;;12.70;99.90;;;;;;5064728;28;20032;-71
2023/04/26 02:46:22;;;;;;;5.55;4.88;;;12.80;99.90;;;;;;5066933;28;20407;-70
2023/04/26 02:48:48;;;;;;;6.78;4.72;;;12.60;99.90;;;;;;5068936;28;20052;-70
2023/04/26 02:51:14;;;;;;;5.60;5.00;;;12.60;99.90;;;;;;5056720;28;20051;-71
2023/04/26 02:53:41;;;;;;;6.18;4.88;;;12.70;99.90;;;;;;5063527;28;20040;-71
2023/04/26 02:56:07;;;;;;;5.85;5.03;;;12.50;99.90;;;;;;5070384;28;20052;-71
2023/04/26 02:58:33;;;;;;;6.05;5.45;;;12.60;99.90;;;;;;5063258;28;20036;-71
2023/04/26 03:00:59;;;;;;;9.70;5.47;;;12.60;99.90;;;;;;5073142;28;20037;-71
2023/04/26 03:03:25;;;;;;;6.28;4.15;;;12.50;99.90;;;;;;5069445;28;20037;-71
2023/04/26 03:05:51;;;;;;;6.22;4.70;;;12.40;99.90;;;;;;5069805;28;20024;-71
2023/04/26 03:08:17;;;;;;;6.15;4.90;;;12.30;99.90;;;;;;5070543;28;20028;-71
2023/04/26 03:10:44;;;;;;;8.15;5.07;;;12.20;99.90;;;;;;5067186;28;20103;-71
2023/04/26 03:13:10;;;;;;;7.07;4.55;;;12.20;99.90;;;;;;5067890;28;20052;-71
2023/04/26 03:15:37;;;;;;;6.90;5.00;;;12.20;99.90;;;;;;5060054;28;20062;-71
2023/04/26 03:18:03;;;;;;;6.63;5.00;;;12.20;99.90;;;;;;5061148;28;20036;-71
2023/04/26 03:20:29;;;;;;;8.07;5.35;;;12.30;99.90;;;;;;5067290;28;20701;-70
2023/04/26 03:22:55;;;;;;;6.10;5.15;;;12.20;99.90;;;;;;5068454;28;20045;-71
2023/04/26 03:25:22;;;;;;;4.93;4.43;;;12.30;99.90;;;;;;5059272;28;20016;-71
2023/04/26 03:27:48;;;;;;;5.28;4.70;;;12.20;99.90;;;;;;5065766;28;20040;-71
2023/04/26 03:30:14;;;;;;;6.45;4.40;;;12.30;99.90;;;;;;5064953;28;20033;-71
2023/04/26 03:32:40;;;;;;;7.13;4.88;;;12.30;99.90;;;;;;5057437;28;20490;-71
2023/04/26 03:35:07;;;;;;;6.57;4.75;;;12.30;99.90;;;;;;5073522;28;20029;-70
2023/04/26 03:37:33;;;;;;;5.97;5.05;;;12.30;99.90;;;;;;5068879;28;20017;-71
2023/04/26 03:39:59;;;;;;;5.47;4.97;;;12.30;99.90;;;;;;5074428;28;20036;-71
2023/04/26 03:42:25;;;;;;;6.43;5.10;;;12.30;99.90;;;;;;5074569;28;20372;-71
2023/04/26 03:44:51;;;;;;;5.78;5.18;;;12.20;99.90;;;;;;5073960;28;20032;-71
2023/04/26 03:47:17;;;;;;;6.75;5.25;;;12.20;99.90;;;;;;5072035;28;20388;-71
2023/04/26 03:49:44;;;;;;;6.30;5.10;;;12.20;99.90;;;;;;5071932;28;20043;-70
2023/04/26 03:52:10;;;;;;;6.18;4.82;;;12.20;99.90;;;;;;5073717;28;20048;-71
2023/04/26 03:54:36;;;;;;;5.22;4.72;;;12.20;99.90;;;;;;5073261;28;20041;-71
2023/04/26 03:57:02;;;;;;;5.95;4.68;;;12.20;99.90;;;;;;5073049;28;20353;-70
2023/04/26 03:59:29;;;;;;;5.50;4.65;;;12.20;99.90;;;;;;5073694;28;20382;-71
2023/04/26 04:01:55;;;;;;;5.57;4.60;;;12.10;99.90;;;;;;5072312;28;20036;-71
2023/04/26 04:04:21;;;;;;;5.45;4.82;;;12.20;99.90;;;;;;5073588;28;20048;-71
2023/04/26 04:06:47;;;;;;;6.35;4.88;;;12.10;99.90;;;;;;5072522;28;20024;-71
2023/04/26 04:09:13;;;;;;;7.60;5.32;;;12.10;99.90;;;;;;5072002;28;20029;-71
2023/04/26 04:11:40;;;;;;;5.88;5.20;;;12.20;99.90;;;;;;5074197;28;20098;-71
2023/04/26 04:14:06;;;;;;;6.68;4.53;;;12.20;99.90;;;;;;5074189;28;20044;-71
2023/04/26 04:16:32;;;;;;;6.55;4.65;;;12.10;99.90;;;;;;5070404;28;20040;-71
2023/04/26 04:18:58;;;;;;;5.90;5.30;;;12.00;99.90;;;;;;5072675;28;20405;-70
2023/04/26 04:21:24;;;;;;;5.43;4.65;;;12.00;99.90;;;;;;5072693;28;20048;-71
2023/04/26 04:23:50;;;;;;;5.75;4.65;;;12.00;99.90;;;;;;5073962;28;20044;-70
2023/04/26 04:26:17;;;;;;;8.95;5.03;;;12.00;99.90;;;;;;5073099;28;20044;-71
2023/04/26 04:28:45;;;;;;;6.70;4.72;;;12.00;99.90;;;;;;5072927;28;20056;-71
2023/04/26 04:31:12;;;;;;;7.22;5.15;;;12.10;99.90;;;;;;5073025;28;20037;-71
2023/04/26 04:33:38;;;;;;;6.57;5.25;;;12.00;99.90;;;;;;5073627;28;20032;-71
2023/04/26 04:36:05;;;;;;;9.38;5.45;;;12.10;99.90;;;;;;5072392;28;20067;-70
2023/04/26 04:38:31;;;;;;;6.07;5.03;;;12.10;99.90;;;;;;5073091;28;20471;-71
2023/04/26 04:40:58;;;;;;;8.60;5.28;;;12.20;99.90;;;;;;5071724;28;20036;-71
2023/04/26 04:43:24;;;;;;;6.20;4.82;;;12.10;99.90;;;;;;5072146;28;20036;-71
2023/04/26 04:45:50;;;;;;;7.20;5.00;;;12.00;99.90;;;;;;5072759;28;20037;-70
2023/04/26 04:48:17;;;;;;;8.75;4.72;;;12.00;99.90;;;;;;5072928;28;20032;-71
2023/04/26 04:50:43;;;;;;;6.53;5.18;;;12.00;99.90;;;;;;5070290;28;20044;-71
2023/04/26 04:53:09;;;;;;;7.57;5.07;;;11.90;99.90;;;;;;5072935;28;20395;-71
2023/04/26 04:55:35;;;;;;;5.40;4.80;;;11.90;99.90;;;;;;5072940;28;20036;-71
2023/04/26 04:58:02;;;;;;;7.00;5.00;;;12.10;99.90;;;;;;5072513;28;20411;-71
2023/04/26 05:00:29;;;;;;;5.28;4.75;;;12.10;99.90;;;;;;5071883;28;20028;-70
2023/04/26 05:02:55;;;;;;;7.40;5.10;;;12.10;99.90;;;;;;5071427;28;20029;-71
2023/04/26 05:05:21;;;;;;;5.90;5.30;;;12.20;99.90;;;;;;5072461;28;20486;-71
2023/04/26 05:07:48;;;;;;;7.30;5.13;;;12.00;99.90;;;;;;5071129;28;20058;-70
2023/04/26 05:10:14;;;;;;;6.60;4.97;;;12.00;99.90;;;;;;5072597;28;20036;-71
2023/04/26 05:12:40;;;;;;;5.13;4.65;;;12.00;99.90;;;;;;5072561;28;20031;-71
2023/04/26 05:15:07;;;;;;;5.40;4.90;;;12.00;99.90;;;;;;5071335;28;20040;-71
2023/04/26 05:17:33;;;;;;;6.45;5.00;;;12.00;99.90;;;;;;5070975;28;20032;-71
2023/04/26 05:19:59;;;;;;;8.05;5.07;;;12.10;99.90;;;;;;5072690;28;20044;-71
2023/04/26 05:22:26;;;;;;;5.35;4.95;;;12.20;99.90;;;;;;5070736;28;20039;-70
2023/04/26 05:24:52;;;;;;;6.47;4.97;;;12.20;99.90;;;;;;5072583;28;20502;-70
2023/04/26 05:27:18;;;;;;;6.05;4.70;;;12.10;99.90;;;;;;5070871;28;20032;-71
2023/04/26 05:29:44;;;;;;;6.93;4.55;;;12.10;99.90;;;;;;5068220;28;20951;-71
2023/04/26 05:32:11;;;;;;;5.82;4.68;;;12.10;99.90;;;;;;5072006;28;20032;-71
2023/04/26 05:34:37;;;;;;;8.32;4.80;;;12.00;99.90;;;;;;5071971;28;20062;-71
2023/04/26 05:37:03;;;;;;;5.30;4.78;;;12.00;99.90;;;;;;5072309;28;20021;-71
2023/04/26 05:39:30;;;;;;;6.03;4.82;;;12.10;99.90;;;;;;5070898;28;20036;-71
2023/04/26 05:41:56;;;;;;;6.40;5.20;;;12.00;99.90;;;;;;5072578;28;20029;-71
2023/04/26 05:44:23;;;;;;;5.47;4.97;;;12.00;99.90;;;;;;5072214;28;20025;-71
2023/04/26 05:46:49;;;;;;;7.47;5.07;;;12.10;99.90;;;;;;5072030;28;20120;-71
2023/04/26 05:49:15;;;;;;;6.90;5.10;;;12.20;99.90;;;;;;5070960;28;20041;-71
2023/04/26 05:51:42;;;;;;;7.72;4.70;;;12.20;99.90;;;;;;5072200;28;20040;-70
2023/04/26 05:54:08;;;;;;;8.27;5.35;;;12.30;99.90;;;;;;5071334;28;20043;-71
2023/04/26 05:56:34;;;;;;;6.53;4.90;;;12.20;99.90;;;;;;5071977;28;20036;-71
2023/04/26 05:59:00;;;;;;;5.57;4.82;;;12.20;99.90;;;;;;5069701;28;20036;-71
2023/04/26 06:01:26;;;;;;;6.82;5.25;;;12.20;99.90;;;;;;5070233;28;20037;-71
2023/04/26 06:03:52;;;;;;;7.18;4.82;;;12.10;99.90;;;;;;5070370;28;20095;-71
2023/04/26 06:06:19;;;;;;;5.93;4.50;;;12.10;99.90;;;;;;5070874;28;20033;-71
2023/04/26 06:08:45;;;;;;;6.90;4.82;;;12.20;99.90;;;;;;5070853;28;20486;-71
2023/04/26 06:11:11;;;;;;;6.68;4.80;;;12.20;99.90;;;;;;5071512;28;20467;-71
2023/04/26 06:13:37;;;;;;;6.63;4.30;;;12.30;99.90;;;;;;5071034;28;20021;-71
2023/04/26 06:16:03;;;;;;;5.65;4.65;;;12.30;99.90;;;;;;5070733;28;20041;-71
2023/04/26 06:18:30;;;;;;;6.63;4.63;;;12.30;99.90;;;;;;5066068;28;20403;-71
2023/04/26 06:20:56;;;;;;;6.22;5.00;;;12.30;99.90;;;;;;5070400;28;20028;-71
2023/04/26 06:23:22;;;;;;;5.93;4.78;;;12.30;99.90;;;;;;5062108;28;20419;-71
2023/04/26 06:25:48;;;;;;;7.47;4.93;;;12.30;99.90;;;;;;5069821;28;20032;-71
2023/04/26 06:28:14;;;;;;;6.78;5.05;;;12.40;99.90;;;;;;5058462;28;20497;-71
2023/04/26 06:30:41;;;;;;;6.88;5.38;;;12.40;99.90;;;;;;5073153;28;20037;-70
2023/04/26 06:33:07;;;;;;;5.07;4.53;;;12.40;99.90;;;;;;5066745;28;20028;-71
2023/04/26 06:35:39;;;;;;;7.40;5.03;;;12.50;99.90;;;;;;5073532;28;20043;-71
2023/04/26 06:38:05;;;;;;;6.82;4.97;;;12.50;99.90;;;;;;5071617;28;20637;-74
2023/04/26 06:40:32;;;;;;;7.30;4.85;;;12.50;99.90;;;;;;5070521;28;20041;-73
2023/04/26 06:42:58;;;;;;;5.18;4.68;;;12.50;99.90;;;;;;5073792;28;20039;-74
2023/04/26 06:45:24;;;;;;;5.65;4.70;;;12.50;99.90;;;;;;5073529;28;20043;-73
2023/04/26 06:47:51;;;;;;;5.57;4.93;;;12.40;99.90;;;;;;5073284;28;20048;-73
2023/04/26 06:50:17;;;;;;;6.93;5.18;;;12.40;99.90;;;;;;5069273;28;20394;-74
2023/04/26 06:52:44;;;;;;;6.65;4.60;;;12.40;99.90;;;;;;5069110;28;20059;-74
2023/04/26 06:55:10;;;;;;;5.63;5.03;;;12.40;99.90;;;;;;5069955;28;20475;-73
2023/04/26 06:57:36;;;;;;;5.30;4.43;;;12.40;99.90;;;;;;5068363;28;20363;-74
2023/04/26 07:00:03;;;;;;;6.50;4.47;;;12.40;99.90;;;;;;5070204;28;20029;-71
2023/04/26 07:02:29;;;;;;;5.40;4.90;;;12.50;99.90;;;;;;5064067;28;20027;-73
2023/04/26 07:04:55;;;;;;;6.03;5.22;;;12.50;99.90;;;;;;5073035;28;20036;-74
2023/04/26 07:07:21;;;;;;;5.07;4.60;;;12.70;99.90;;;;;;5073008;28;20032;-74
2023/04/26 07:09:47;;;;;;;6.10;5.30;;;12.80;99.90;;;;;;5060456;28;20044;-73
2023/04/26 07:12:13;;;;;;;7.40;5.18;;;12.80;99.90;;;;;;5061285;28;20104;-73
2023/04/26 07:14:40;;;;;;;6.63;5.43;;;12.90;99.90;;;;;;5063148;28;20495;-73
2023/04/26 07:17:06;;;;;;;6.53;5.30;;;12.80;99.90;;;;;;5070828;28;20419;-73
2023/04/26 07:19:32;;;;;;;6.30;5.30;;;12.80;99.90;;;;;;5073960;28;20032;-74
2023/04/26 07:21:58;;;;;;;8.55;5.80;;;12.90;99.90;;;;;;5073029;28;20513;-73
2023/04/26 07:24:24;;;;;;;6.80;6.10;;;12.90;99.90;;;;;;5070911;28;20039;-73
2023/04/26 07:26:51;;;;;;;7.57;5.72;;;13.00;99.90;;;;;;5071065;28;20040;-74
2023/04/26 07:29:17;;;;;;;6.72;6.03;;;13.10;99.90;;;;;;5071427;28;20031;-73
2023/04/26 07:31:44;;;;;;;6.70;5.72;;;13.20;99.90;;;;;;5066858;28;20044;-73
2023/04/26 07:34:10;;;;;;;6.05;5.45;;;13.10;99.90;;;;;;5074514;28;20103;-72
2023/04/26 07:36:36;;;;;;;5.05;4.55;;;13.10;99.90;;;;;;5070975;28;20040;-73
2023/04/26 07:39:04;;;;;;;6.20;5.30;;;13.00;99.90;;;;;;5073395;28;20036;-72
2023/04/26 07:41:30;;;;;;;7.25;5.55;;;12.90;99.90;;;;;;5072227;28;20511;-73
2023/04/26 07:43:57;;;;;;;7.00;5.28;;;13.00;99.90;;;;;;5073601;28;20024;-74
2023/04/26 07:46:23;;;;;;;7.50;4.82;;;13.10;99.90;;;;;;5072188;28;20035;-73
2023/04/26 07:48:49;;;;;;;6.40;4.95;;;13.00;99.90;;;;;;5072084;28;20036;-71
2023/04/26 07:51:15;;;;;;;6.53;4.80;;;13.10;99.90;;;;;;5067596;28;20045;-73
2023/04/26 07:53:41;;;;;;;8.18;5.55;;;13.20;99.90;;;;;;5068989;28;20041;-71
2023/04/26 07:56:07;;;;;;;7.95;5.45;;;13.20;99.90;;;;;;5071719;28;20044;-71
2023/04/26 07:58:35;;;;;;;7.00;5.55;;;13.30;99.90;;;;;;5071778;28;20033;-71
2023/04/26 08:01:01;;;;;;;7.45;5.60;;;13.30;99.90;;;;;;5071194;28;20044;-71
2023/04/26 08:03:27;;;;;;;9.63;5.90;;;13.40;99.90;;;;;;5068822;28;20069;-71
2023/04/26 08:05:53;;;;;;;9.05;6.38;;;13.40;99.90;;;;;;5068901;28;20044;-71
2023/04/26 08:08:21;;;;;;;7.03;5.78;;;13.40;99.90;;;;;;5072232;28;20395;-71
2023/04/26 08:10:47;;;;;;;6.63;6.00;;;13.50;99.90;;;;;;5071948;28;20032;-71
2023/04/26 08:13:13;;;;;;;8.23;6.00;;;13.50;99.90;;;;;;5072009;28;20051;-71
2023/04/26 08:15:39;;;;;;;8.45;6.53;;;13.60;99.90;;;;;;5068002;28;20041;-71
2023/04/26 08:18:06;;;;;;;8.15;6.72;;;13.60;99.90;;;;;;5058036;28;20070;-71
2023/04/26 08:20:32;;;;;;;8.88;6.20;;;13.60;99.90;;;;;;5068401;28;20036;-71
2023/04/26 08:22:58;;;;;;;9.48;6.05;;;13.60;99.90;;;;;;5069351;28;20052;-71
2023/04/26 08:25:24;;;;;;;7.80;5.40;;;13.50;99.90;;;;;;5064815;28;20032;-71
2023/04/26 08:27:51;;;;;;;6.75;6.05;;;13.60;99.90;;;;;;5069176;28;20047;-71
2023/04/26 08:30:18;;;;;;;9.35;6.00;;;13.70;99.90;;;;;;5068711;28;20387;-71
2023/04/26 08:32:45;;;;;;;8.23;6.00;;;13.70;99.90;;;;;;5052628;28;20048;-71
2023/04/26 08:35:11;;;;;;;8.45;6.50;;;13.90;99.90;;;;;;5055874;28;20502;-71
2023/04/26 08:37:37;;;;;;;10.10;6.47;;;14.00;99.90;;;;;;5069942;28;20028;-72
2023/04/26 08:40:09;;;;;;;10.00;7.57;;;14.00;99.90;;;;;;5065655;28;20024;-71
2023/04/26 08:42:39;;;;;;;11.13;6.97;;;14.00;99.90;;;;;;5065742;28;20032;-72
2023/04/26 08:45:06;;;;;;;8.40;6.63;;;14.10;99.90;;;;;;5068116;28;20048;-71
2023/04/26 08:47:52;;;;;;;9.02;6.40;;;14.10;99.90;;;;;;5064779;28;20035;-71
2023/04/26 08:50:19;;;;;;;7.72;6.90;;;14.20;99.90;;;;;;5068235;28;20386;-71
2023/04/26 08:52:47;;;;;;;10.18;6.20;;;14.10;99.90;;;;;;5067662;28;20052;-71
2023/04/26 08:55:15;;;;;;;10.48;6.50;;;14.10;99.90;;;;;;5068862;28;20404;-71
2023/04/26 08:57:42;;;;;;;9.00;6.88;;;14.20;99.90;;;;;;5070215;28;20053;-71
2023/04/26 09:00:11;;;;;;;9.10;6.63;;;14.30;99.90;;;;;;5057564;28;20045;-71
2023/04/26 09:02:37;;;;;;;8.52;6.10;;;14.10;99.90;;;;;;5069300;28;20063;-71
2023/04/26 09:05:03;;;;;;;8.05;6.15;;;14.10;99.90;;;;;;5052556;28;20028;-71
2023/04/26 09:07:31;;;;;;;6.80;5.47;;;14.10;99.90;;;;;;5069916;28;20024;-71
2023/04/26 09:09:57;;;;;;;9.32;5.68;;;14.10;99.90;;;;;;5070190;28;20040;-71
2023/04/26 09:12:24;;;;;;;8.65;6.25;;;14.10;99.90;;;;;;5071571;28;20032;-71
2023/04/26 09:14:50;;;;;;;8.98;6.57;;;14.20;99.90;;;;;;5070094;28;20395;-71
2023/04/26 09:17:31;;;;;;;7.57;5.85;;;14.30;99.90;;;;;;5070484;27;20380;-71
2023/04/26 09:19:58;;;;;;;8.02;6.28;;;14.30;99.90;;;;;;5058454;28;20376;-71
2023/04/26 09:22:30;;;;;;;9.25;6.53;;;14.30;99.90;;;;;;5069594;28;20039;-71
2023/04/26 09:24:57;;;;;;;9.32;6.57;;;14.50;99.90;;;;;;5069724;28;20517;-71
2023/04/26 09:27:39;;;;;;;11.00;7.45;;;14.60;99.90;;;;;;5068773;28;20079;-71
2023/04/26 09:30:09;;;;;;;10.77;7.43;;;14.70;99.90;;;;;;5068685;28;20060;-71
2023/04/26 09:32:57;;;;;;;9.15;8.25;;;14.80;99.90;;;;;;5057976;28;20037;-71
2023/04/26 09:35:27;;;;;;;8.88;7.97;;;14.90;99.90;;;;;;5066936;28;20044;-71
2023/04/26 09:38:11;;;;;;;8.57;7.72;;;14.90;99.90;;;;;;5068754;28;20491;-71
2023/04/26 09:40:41;;;;;;;8.40;7.50;;;15.00;99.90;;;;;;5067024;28;20048;-71
2023/04/26 09:43:13;;;;;;;12.15;8.25;;;15.10;99.90;;;;;;5061891;28;20029;-71
2023/04/26 09:45:53;;;;;;;12.73;8.65;;;15.20;99.90;;;;;;5064562;28;20032;-71
2023/04/26 09:48:21;;;;;;;11.35;9.27;;;15.20;99.90;;;;;;5068604;28;20047;-71
2023/04/26 09:50:48;;;;;;;11.48;10.13;;;15.30;99.90;;;;;;5071338;28;20025;-71
2023/04/26 09:53:46;;;;;;;12.30;9.73;;;15.30;99.90;;;;;;5071916;28;20048;-70
2023/04/26 09:56:17;;;;;;;12.30;10.60;;;15.40;99.90;;;;;;5063120;28;20047;-71
2023/04/26 09:58:47;;;;;;;13.65;11.40;;;15.60;99.90;;;;;;5061477;28;20041;-71
2023/04/26 10:01:15;;;;;;;13.40;12.00;;;15.60;99.90;;;;;;5071497;28;20033;-71
2023/04/26 10:03:41;;;;;;;14.55;12.90;;;15.50;99.90;;;;;;5069788;28;20032;-71
2023/04/26 10:06:07;;;;;;;14.20;12.70;;;15.70;99.90;;;;;;5069770;28;20024;-71
2023/04/26 10:08:34;;;;;;;13.95;12.52;;;15.70;99.90;;;;;;5070401;28;20028;-71
2023/04/26 10:11:03;;;;;;;13.75;12.38;;;15.70;99.90;;;;;;5071871;28;20375;-71
2023/04/26 10:13:31;;;;;;;14.15;12.35;;;15.90;99.90;;;;;;5070529;28;20052;-71
2023/04/26 10:15:58;;;;;;;14.10;11.95;;;16.00;99.90;;;;;;5070269;28;20040;-71
2023/04/26 10:18:25;;;;;;;13.27;10.60;;;15.90;99.90;;;;;;5071135;28;20414;-70
2023/04/26 10:20:52;;;;;;;13.80;12.45;;;15.80;99.90;;;;;;5071768;28;20471;-71
2023/04/26 10:23:24;;;;;;;13.55;12.15;;;15.70;99.90;;;;;;5071694;28;20037;-70
2023/04/26 10:25:50;;;;;;;13.32;12.00;;;15.60;99.90;;;;;;5069987;28;20025;-70
2023/04/26 10:28:47;;;;;;;12.50;11.20;;;15.70;99.90;;;;;;5070740;28;20539;-71
2023/04/26 10:31:13;;;;;;;12.77;11.57;;;16.00;99.90;;;;;;5071576;28;20036;-70
2023/04/26 10:33:40;;;;;;;13.55;11.98;;;16.00;99.90;;;;;;5071899;28;20032;-71
2023/04/26 10:36:16;;;;;;;14.40;12.90;;;15.80;99.90;;;;;;5070849;28;20093;-71
2023/04/26 10:39:17;;;;;;;13.40;12.00;;;15.70;99.90;;;;;;5064623;28;20055;-71
2023/04/26 10:41:43;;;;;;;14.37;12.53;;;15.80;99.90;;;;;;5070782;28;20025;-70
2023/04/26 10:44:39;;;;;;;13.23;11.85;;;16.10;99.90;;;;;;5068737;28;20035;-71
2023/04/26 10:47:06;;;;;;;13.25;11.80;;;16.40;99.90;;;;;;5067024;28;20040;-70
2023/04/26 10:49:47;;;;;;;13.05;11.68;;;16.20;99.90;;;;;;5069377;28;20103;-71
2023/04/26 10:52:15;;;;;;;13.10;11.85;;;16.20;99.90;;;;;;5069862;28;20051;-70
2023/04/26 10:54:47;;;;;;;14.43;12.93;;;16.40;99.90;;;;;;5071237;28;20028;-71
2023/04/26 10:57:14;;;;;;;13.77;11.55;;;16.50;99.90;;;;;;5069892;28;20119;-71
2023/04/26 11:00:00;;;;;;;13.63;12.40;;;16.60;99.90;;;;;;5069903;28;20032;-71
2023/04/26 11:02:53;;;;;;;14.75;11.70;;;16.50;99.90;;;;;;5070419;28;20103;-70
2023/04/26 11:05:41;;;;;;;12.60;10.30;;;16.60;99.90;;;;;;5068208;28;20044;-71
2023/04/26 11:08:18;;;;;;;13.73;11.55;;;16.50;99.90;;;;;;5070236;28;20044;-71
2023/04/26 11:10:52;;;;;;;11.55;10.13;;;16.50;99.90;;;;;;5068303;28;20044;-71
2023/04/26 11:13:18;;;;;;;10.27;9.27;;;16.50;99.90;;;;;;5069926;28;20048;-71
2023/04/26 11:15:45;;;;;;;8.27;7.47;;;16.70;99.90;;;;;;5071149;28;20044;-70
2023/04/26 11:18:11;;;;;;;7.95;7.25;;;16.90;99.90;;;;;;5069893;28;20028;-71
2023/04/26 11:20:37;;;;;;;7.78;6.75;;;17.00;99.90;;;;;;5074914;28;20028;-71
2023/04/26 11:23:03;;;;;;;7.68;6.88;;;17.20;99.90;;;;;;5074614;28;20032;-71
2023/04/26 11:25:30;;;;;;;8.18;7.47;;;17.30;99.90;;;;;;5056843;28;20044;-71
2023/04/26 11:28:00;;;;;;;8.75;7.93;;;17.50;99.90;;;;;;5073697;28;20048;-70
2023/04/26 11:30:33;;;;;;;7.90;6.68;;;17.50;99.90;;;;;;5072636;28;20035;-71
2023/04/26 11:32:59;;;;;;;7.80;7.10;;;17.60;99.90;;;;;;5074189;28;20032;-70
2023/04/26 11:35:28;;;;;;;7.65;7.05;;;17.70;99.90;;;;;;5073947;28;20036;-70
2023/04/26 11:37:56;;;;;;;8.55;7.90;;;17.80;99.90;;;;;;5073329;28;20036;-71
2023/04/26 11:40:23;;;;;;;7.70;7.00;;;17.80;99.90;;;;;;5072275;28;20035;-71
2023/04/26 11:42:49;;;;;;;7.63;7.03;;;17.70;99.90;;;;;;5060404;28;20403;-71
2023/04/26 11:45:15;;;;;;;6.70;6.20;;;17.80;99.90;;;;;;5070136;27;20036;-71
2023/04/26 11:47:42;;;;;;;7.13;6.53;;;17.70;99.90;;;;;;5070971;28;20029;-71
2023/04/26 11:50:09;;;;;;;7.68;6.95;;;17.80;99.90;;;;;;5072482;28;20047;-70
2023/04/26 11:52:35;;;;;;;8.45;7.50;;;17.80;99.90;;;;;;5071174;28;20040;-70
2023/04/26 11:55:03;;;;;;;8.57;7.78;;;17.80;99.90;;;;;;5074292;28;20025;-70
2023/04/26 11:57:31;;;;;;;7.70;7.00;;;17.80;99.90;;;;;;5073642;28;20067;-70
2023/04/26 12:00:11;;;;;;;6.93;6.43;;;17.90;99.90;;;;;;5072541;28;20056;-70
2023/04/26 12:02:37;;;;;;;7.68;6.97;;;17.80;99.90;;;;;;5073522;28;20690;-70
2023/04/26 12:05:03;;;;;;;7.07;6.57;;;17.90;99.90;;;;;;5072582;28;20043;-70
2023/04/26 12:07:39;;;;;;;6.60;6.05;;;17.90;99.90;;;;;;5073697;28;20051;-70
2023/04/26 12:10:34;;;;;;;7.03;6.45;;;18.10;99.90;;;;;;5071935;28;20200;-70
2023/04/26 12:13:03;;;;;;;6.47;6.07;;;18.00;99.90;;;;;;5073915;28;20031;-70
2023/04/26 12:15:30;;;;;;;7.43;6.93;;;18.10;99.90;;;;;;5072714;28;20069;-70
2023/04/26 12:18:05;;;;;;;6.18;5.57;;;18.10;99.90;;;;;;5071468;28;20039;-71
2023/04/26 12:20:35;;;;;;;7.47;6.93;;;18.20;99.90;;;;;;5056708;28;20501;-71
2023/04/26 12:23:01;;;;;;;6.15;5.63;;;18.20;99.90;;;;;;5055911;28;20039;-71
2023/04/26 12:25:28;;;;;;;5.57;5.07;;;18.10;99.90;;;;;;5073548;28;20538;-71
2023/04/26 12:27:54;;;;;;;5.25;4.95;;;18.00;99.90;;;;;;5054238;28;20498;-71
2023/04/26 12:30:20;;;;;;;5.70;5.30;;;18.00;99.90;;;;;;5072207;28;20044;-70
2023/04/26 12:32:46;;;;;;;5.97;5.60;;;17.90;99.90;;;;;;5073286;28;20063;-71
2023/04/26 12:35:12;;;;;;;5.80;5.45;;;17.90;99.90;;;;;;5055466;28;20032;-71
2023/04/26 12:37:39;;;;;;;6.15;4.82;;;17.70;99.90;;;;;;5071828;28;20398;-70
2023/04/26 12:40:06;;;;;;;14.20;13.00;;;17.70;99.90;;;;;;5071143;28;20463;-70
2023/04/26 12:42:32;;;;;;;5.15;4.10;;;17.70;99.90;;;;;;5073477;28;20047;-71
2023/04/26 12:44:58;;;;;;;4.70;4.40;;;17.70;99.90;;;;;;5072806;28;20024;-73
2023/04/26 12:47:24;;;;;;;4.30;4.00;;;17.70;99.90;;;;;;5071039;28;20039;-70